createdAt,value
2022-11-12T00:00:27.265Z,80.7
2022-11-12T00:05:27.506Z,80.7
2022-11-12T00:10:27.158Z,80.7
2022-11-12T00:15:30.710Z,80.8
2022-11-12T00:20:27.213Z,80.8
2022-11-12T00:25:26.396Z,80.8
2022-11-12T00:30:26.319Z,80.9
2022-11-12T00:35:26.390Z,80.9
2022-11-12T00:40:26.384Z,80.9
2022-11-12T00:45:26.558Z,80.9
2022-11-12T00:50:26.275Z,80.9
2022-11-12T00:55:26.415Z,80.9
2022-11-12T01:00:26.392Z,80.9
2022-11-12T01:05:26.577Z,81.0
2022-11-12T01:10:26.310Z,81.0
2022-11-12T01:15:26.356Z,81.0
2022-11-12T01:20:26.293Z,81.1
2022-11-12T01:25:26.647Z,81.1
2022-11-12T01:30:26.880Z,81.1
2022-11-12T01:35:27.109Z,81.1
2022-11-12T01:40:26.324Z,81.1
2022-11-12T01:45:26.317Z,81.2
2022-11-12T01:50:26.288Z,81.2
2022-11-12T01:55:26.508Z,81.2
2022-11-12T02:00:26.237Z,81.2
2022-11-12T02:05:26.243Z,81.2
2022-11-12T02:10:26.258Z,81.3
2022-11-12T02:15:26.398Z,81.3
2022-11-12T02:20:26.165Z,81.3
2022-11-12T02:25:26.106Z,81.4
2022-11-12T02:30:26.250Z,81.4
2022-11-12T02:35:26.097Z,81.5
2022-11-12T02:40:26.100Z,81.5
2022-11-12T02:45:26.070Z,81.5
2022-11-12T02:50:26.060Z,81.5
2022-11-12T02:55:26.255Z,81.5
2022-11-12T03:00:26.137Z,81.5
2022-11-12T03:05:26.147Z,81.5
2022-11-12T03:10:26.124Z,81.6
2022-11-12T03:15:26.174Z,81.6
2022-11-12T03:20:26.183Z,81.6
2022-11-12T03:25:26.229Z,81.6
2022-11-12T03:30:26.072Z,81.6
2022-11-12T03:35:26.107Z,81.6
2022-11-12T03:40:25.939Z,81.6
2022-11-12T03:45:26.097Z,81.7
2022-11-12T03:50:26.078Z,81.7
2022-11-12T03:55:26.023Z,81.7
2022-11-12T04:00:26.251Z,81.7
2022-11-12T04:05:26.037Z,81.8
2022-11-12T04:10:26.074Z,81.8
2022-11-12T04:15:26.034Z,81.9
2022-11-12T04:20:25.909Z,81.8
2022-11-12T04:25:25.947Z,81.8
2022-11-12T04:30:25.986Z,81.9
2022-11-12T04:35:25.942Z,82.0
2022-11-12T04:40:25.868Z,82.0
2022-11-12T04:45:25.906Z,82.0
2022-11-12T04:50:25.875Z,82.0
2022-11-12T04:55:25.893Z,82.0
2022-11-12T05:00:25.957Z,81.9
2022-11-12T05:05:29.696Z,82.0
2022-11-12T05:10:25.825Z,82.0
2022-11-12T05:15:26.001Z,82.0
2022-11-12T05:20:25.816Z,82.0
2022-11-12T05:25:25.779Z,82.1
2022-11-12T05:30:25.914Z,82.1
2022-11-12T05:35:25.760Z,82.1
2022-11-12T05:40:25.763Z,82.1
2022-11-12T05:45:25.877Z,82.1
2022-11-12T05:50:31.081Z,82.1
2022-11-12T05:55:25.721Z,82.2
2022-11-12T06:00:25.759Z,82.2
2022-11-12T06:05:25.790Z,82.2
2022-11-12T06:10:25.740Z,82.2
2022-11-12T06:15:25.683Z,82.2
2022-11-12T06:20:25.747Z,82.2
2022-11-12T06:25:25.721Z,82.2
2022-11-12T06:30:25.995Z,82.2
2022-11-12T06:35:25.882Z,82.2
2022-11-12T06:40:25.794Z,82.2
2022-11-12T06:45:25.826Z,82.1
2022-11-12T06:50:25.782Z,82.1
2022-11-12T06:55:25.711Z,82.1
2022-11-12T07:00:25.725Z,82.1
2022-11-12T07:05:25.810Z,82.2
2022-11-12T07:10:25.933Z,82.2
2022-11-12T07:15:25.628Z,82.3
2022-11-12T07:20:25.614Z,82.4
2022-11-12T07:25:25.651Z,82.5
2022-11-12T07:30:25.622Z,82.4
2022-11-12T07:35:25.671Z,82.4
2022-11-12T07:40:26.338Z,82.4
2022-11-12T07:45:26.257Z,82.5
2022-11-12T07:50:26.253Z,82.6
2022-11-12T07:55:26.288Z,82.6
2022-11-12T08:00:25.673Z,82.6
2022-11-12T08:05:25.561Z,82.6
2022-11-12T08:10:25.627Z,82.6
2022-11-12T08:15:25.580Z,82.6
2022-11-12T08:20:25.445Z,82.5
2022-11-12T08:25:25.750Z,82.5
2022-11-12T08:30:25.505Z,82.6
2022-11-12T08:35:25.486Z,82.6
2022-11-12T08:40:25.585Z,82.6
2022-11-12T08:45:25.477Z,82.5
2022-11-12T08:50:25.726Z,82.6
2022-11-12T08:55:25.576Z,82.6
2022-11-12T09:00:25.816Z,82.6
2022-11-12T09:05:25.635Z,82.5
2022-11-12T09:10:25.506Z,82.5
2022-11-12T09:15:37.861Z,82.6
2022-11-12T09:20:25.578Z,82.5
2022-11-12T09:25:25.356Z,82.5
2022-11-12T09:30:25.538Z,82.5
2022-11-12T09:35:25.625Z,82.5
2022-11-12T09:40:25.443Z,82.5
2022-11-12T09:45:25.444Z,82.4
2022-11-12T09:50:25.570Z,82.4
2022-11-12T09:55:25.532Z,82.3
2022-11-12T10:00:25.542Z,82.4
2022-11-12T10:05:25.355Z,82.3
2022-11-12T10:10:25.253Z,82.4
2022-11-12T10:15:25.332Z,82.3
2022-11-12T10:20:25.441Z,82.2
2022-11-12T10:25:35.891Z,81.9
2022-11-12T10:30:25.264Z,81.9
2022-11-12T10:35:25.471Z,81.8
2022-11-12T10:40:25.265Z,81.6
2022-11-12T10:45:25.361Z,81.4
2022-11-12T10:50:25.358Z,81.1
2022-11-12T10:55:25.303Z,81.0
2022-11-12T11:00:25.281Z,80.9
2022-11-12T11:05:25.599Z,80.8
2022-11-12T11:10:25.149Z,80.5
2022-11-12T11:15:25.203Z,80.5
2022-11-12T11:20:25.447Z,80.4
2022-11-12T11:25:25.182Z,80.4
2022-11-12T11:30:25.180Z,79.8
2022-11-12T11:35:25.295Z,80.1
2022-11-12T11:40:25.174Z,79.9
2022-11-12T11:45:25.180Z,79.7
2022-11-12T11:50:25.513Z,79.5
2022-11-12T11:55:25.218Z,79.5
2022-11-12T12:00:25.371Z,79.3
2022-11-12T12:05:26.425Z,79.2
2022-11-12T12:10:46.305Z,79.0
2022-11-12T12:15:25.139Z,78.7
2022-11-12T12:20:25.172Z,78.7
2022-11-12T12:25:25.130Z,78.6
2022-11-12T12:30:25.247Z,78.6
2022-11-12T12:35:25.227Z,78.5
2022-11-12T12:40:25.096Z,78.4
2022-11-12T12:45:25.073Z,78.2
2022-11-12T12:50:25.184Z,77.9
2022-11-12T12:55:25.045Z,78.0
2022-11-12T13:00:25.328Z,77.7
2022-11-12T13:05:25.622Z,77.5
2022-11-12T13:10:25.154Z,77.4
2022-11-12T13:15:25.105Z,77.4
2022-11-12T13:20:25.252Z,77.5
2022-11-12T13:25:24.995Z,77.3
2022-11-12T13:30:25.034Z,77.1
2022-11-12T13:35:25.265Z,76.8
2022-11-12T13:40:24.959Z,76.7
2022-11-12T13:45:25.222Z,76.7
2022-11-12T13:50:25.328Z,76.7
2022-11-12T13:55:25.061Z,76.5
2022-11-12T14:00:25.158Z,76.4
2022-11-12T14:05:25.165Z,76.4
2022-11-12T14:10:25.000Z,76.3
2022-11-12T14:15:25.942Z,76.3
2022-11-12T14:20:25.118Z,76.4
2022-11-12T14:25:26.026Z,76.3
2022-11-12T14:30:25.679Z,76.4
2022-11-12T14:35:26.302Z,76.3
2022-11-12T14:40:25.847Z,76.4
2022-11-12T14:45:25.779Z,76.4
2022-11-12T14:50:25.634Z,76.4
2022-11-12T14:55:25.006Z,76.3
2022-11-12T15:00:24.937Z,76.3
2022-11-12T15:05:25.223Z,76.3
2022-11-12T15:10:25.649Z,76.3
2022-11-12T15:15:25.898Z,76.2
2022-11-12T15:20:24.788Z,76.1
2022-11-12T15:25:24.913Z,76.1
2022-11-12T15:30:24.949Z,76.0
2022-11-12T15:35:24.836Z,75.9
2022-11-12T15:40:24.791Z,76.2
2022-11-12T15:45:24.971Z,76.1
2022-11-12T16:45:35.276Z,76.7
2022-11-12T16:50:35.228Z,77.9
2022-11-12T16:55:35.725Z,77.9
2022-11-12T17:00:35.136Z,77.9
2022-11-12T17:05:35.161Z,78.0
2022-11-12T17:10:35.141Z,78.2
2022-11-12T17:15:35.183Z,78.2
2022-11-12T17:20:35.220Z,78.2
2022-11-12T17:25:35.256Z,78.3
2022-11-12T17:30:35.120Z,78.4
2022-11-12T17:35:35.157Z,78.5
2022-11-12T17:40:35.091Z,78.8
2022-11-12T17:45:35.081Z,78.8
2022-11-12T17:50:35.490Z,78.9
2022-11-12T17:55:35.049Z,79.0
2022-11-12T18:00:35.053Z,79.1
2022-11-12T18:05:35.091Z,79.1
2022-11-12T18:10:35.128Z,79.2
2022-11-12T18:15:35.328Z,79.7
2022-11-12T18:20:37.148Z,79.6
2022-11-12T18:25:34.917Z,79.8
2022-11-12T18:30:34.923Z,80.0
2022-11-12T18:35:35.122Z,80.0
2022-11-12T18:40:34.991Z,80.1
2022-11-12T18:45:35.207Z,80.3
2022-11-12T18:50:34.827Z,80.1
2022-11-12T18:55:34.985Z,80.1
2022-11-12T19:00:35.085Z,80.1
2022-11-12T19:05:34.936Z,80.1
2022-11-12T19:10:35.627Z,80.1
2022-11-12T19:15:35.134Z,80.1
2022-11-12T19:20:34.922Z,80.2
2022-11-12T19:25:35.103Z,80.2
2022-11-12T19:30:34.814Z,80.2
2022-11-12T19:35:34.883Z,80.2
2022-11-12T19:40:34.940Z,80.2
2022-11-12T19:45:35.562Z,80.2
2022-11-12T19:50:34.869Z,80.3
2022-11-12T19:55:39.740Z,80.3
2022-11-12T20:00:35.000Z,80.3
2022-11-12T20:10:35.254Z,80.4
2022-11-12T20:15:34.839Z,80.4
2022-11-12T20:20:36.277Z,80.5
2022-11-12T20:25:35.687Z,80.4
2022-11-12T20:30:35.470Z,80.5
2022-11-12T20:35:36.143Z,80.5
2022-11-12T20:40:35.461Z,80.5
2022-11-12T20:45:35.403Z,80.5
2022-11-12T20:50:35.389Z,80.5
2022-11-12T20:55:35.593Z,80.5
2022-11-12T21:00:35.339Z,80.6
2022-11-12T21:05:35.522Z,80.6
2022-11-12T21:10:35.333Z,80.5
2022-11-12T21:15:35.341Z,80.6
2022-11-12T21:20:35.410Z,80.6
2022-11-12T21:25:35.485Z,80.7
2022-11-12T21:30:34.731Z,80.7
2022-11-12T21:35:35.473Z,80.7
2022-11-12T21:40:34.701Z,80.7
2022-11-12T21:45:35.558Z,80.7
2022-11-12T21:50:34.635Z,80.7
2022-11-12T21:55:35.504Z,80.7
2022-11-12T22:00:42.032Z,80.7
2022-11-12T22:05:34.637Z,80.7
2022-11-12T22:10:34.519Z,80.8
2022-11-12T22:15:34.796Z,80.8
2022-11-12T22:20:34.554Z,80.8
2022-11-12T22:25:34.616Z,80.9
2022-11-12T22:30:34.743Z,80.9
2022-11-12T22:35:35.046Z,80.9
2022-11-12T22:40:34.617Z,80.9
2022-11-12T22:45:35.443Z,81.0
2022-11-12T22:50:34.613Z,80.9
2022-11-12T22:55:34.619Z,81.0
2022-11-12T23:00:34.422Z,81.0
2022-11-12T23:05:34.427Z,81.1
2022-11-12T23:10:34.448Z,81.1
2022-11-12T23:15:34.418Z,81.1
2022-11-12T23:20:35.059Z,81.1
2022-11-12T23:25:35.080Z,81.2
2022-11-12T23:30:35.101Z,81.2
2022-11-12T23:35:35.166Z,81.1
2022-11-12T23:40:35.292Z,81.2
2022-11-12T23:45:35.226Z,81.2
2022-11-12T23:50:34.472Z,81.3
2022-11-12T23:55:38.401Z,81.3
